sensor_id;sensor_type;location;lat;lon;timestamp;temperature;humidity
21646;DHT22;10984;45.712;4.800;2023-05-29T00:00:54;17.40;33.70
21646;DHT22;10984;45.712;4.800;2023-05-29T00:03:19;17.30;41.30
21646;DHT22;10984;45.712;4.800;2023-05-29T00:05:45;17.30;43.70
21646;DHT22;10984;45.712;4.800;2023-05-29T00:08:11;17.30;46.40
21646;DHT22;10984;45.712;4.800;2023-05-29T00:10:36;17.20;55.80
21646;DHT22;10984;45.712;4.800;2023-05-29T00:13:03;17.10;53.00
21646;DHT22;10984;45.712;4.800;2023-05-29T00:15:28;17.00;52.30
21646;DHT22;10984;45.712;4.800;2023-05-29T00:17:55;16.90;64.70
21646;DHT22;10984;45.712;4.800;2023-05-29T00:20:21;17.00;64.20
21646;DHT22;10984;45.712;4.800;2023-05-29T00:22:47;17.00;61.40
21646;DHT22;10984;45.712;4.800;2023-05-29T00:25:14;17.10;58.10
21646;DHT22;10984;45.712;4.800;2023-05-29T00:27:40;17.10;57.90
21646;DHT22;10984;45.712;4.800;2023-05-29T00:30:07;17.00;67.10
21646;DHT22;10984;45.712;4.800;2023-05-29T00:32:33;17.00;73.70
21646;DHT22;10984;45.712;4.800;2023-05-29T00:34:58;16.80;82.00
21646;DHT22;10984;45.712;4.800;2023-05-29T00:37:24;16.70;93.40
21646;DHT22;10984;45.712;4.800;2023-05-29T00:39:50;16.70;96.20
21646;DHT22;10984;45.712;4.800;2023-05-29T00:42:15;16.60;96.00
21646;DHT22;10984;45.712;4.800;2023-05-29T00:44:41;16.60;98.10
21646;DHT22;10984;45.712;4.800;2023-05-29T00:47:07;16.50;99.90
21646;DHT22;10984;45.712;4.800;2023-05-29T00:49:34;16.50;99.90
21646;DHT22;10984;45.712;4.800;2023-05-29T00:52:01;16.50;99.90
21646;DHT22;10984;45.712;4.800;2023-05-29T00:54:29;16.50;99.60
21646;DHT22;10984;45.712;4.800;2023-05-29T00:56:58;16.40;99.90
21646;DHT22;10984;45.712;4.800;2023-05-29T00:59:27;16.40;99.90
21646;DHT22;10984;45.712;4.800;2023-05-29T01:01:55;16.40;99.90
21646;DHT22;10984;45.712;4.800;2023-05-29T01:04:22;16.40;99.90
21646;DHT22;10984;45.712;4.800;2023-05-29T01:06:49;16.40;99.90
21646;DHT22;10984;45.712;4.800;2023-05-29T01:09:15;16.40;99.90
21646;DHT22;10984;45.712;4.800;2023-05-29T01:15:09;16.50;99.30
21646;DHT22;10984;45.712;4.800;2023-05-29T01:26:57;16.60;94.60
21646;DHT22;10984;45.712;4.800;2023-05-29T01:29:26;16.50;95.70
21646;DHT22;10984;45.712;4.800;2023-05-29T01:31:52;16.50;96.70
21646;DHT22;10984;45.712;4.800;2023-05-29T01:34:19;16.40;99.60
21646;DHT22;10984;45.712;4.800;2023-05-29T01:36:45;16.30;99.90
21646;DHT22;10984;45.712;4.800;2023-05-29T01:39:12;16.30;99.90
21646;DHT22;10984;45.712;4.800;2023-05-29T01:41:39;16.30;99.90
21646;DHT22;10984;45.712;4.800;2023-05-29T01:44:06;16.20;99.90
21646;DHT22;10984;45.712;4.800;2023-05-29T01:46:35;16.10;99.90
21646;DHT22;10984;45.712;4.800;2023-05-29T01:49:01;16.10;99.90
21646;DHT22;10984;45.712;4.800;2023-05-29T01:51:27;16.00;99.90
21646;DHT22;10984;45.712;4.800;2023-05-29T01:53:53;16.00;99.90
21646;DHT22;10984;45.712;4.800;2023-05-29T01:56:19;16.00;99.90
21646;DHT22;10984;45.712;4.800;2023-05-29T01:58:45;15.90;99.90
21646;DHT22;10984;45.712;4.800;2023-05-29T02:01:11;15.90;99.90
21646;DHT22;10984;45.712;4.800;2023-05-29T02:03:37;15.80;99.90
21646;DHT22;10984;45.712;4.800;2023-05-29T02:06:03;15.90;99.90
21646;DHT22;10984;45.712;4.800;2023-05-29T02:08:29;15.90;99.90
21646;DHT22;10984;45.712;4.800;2023-05-29T02:10:54;15.80;99.90
21646;DHT22;10984;45.712;4.800;2023-05-29T02:13:20;15.90;99.90
21646;DHT22;10984;45.712;4.800;2023-05-29T02:15:46;15.80;99.90
21646;DHT22;10984;45.712;4.800;2023-05-29T02:18:14;15.80;99.90
21646;DHT22;10984;45.712;4.800;2023-05-29T02:20:40;15.70;99.90
21646;DHT22;10984;45.712;4.800;2023-05-29T02:23:08;15.70;99.90
21646;DHT22;10984;45.712;4.800;2023-05-29T02:25:34;15.70;99.90
21646;DHT22;10984;45.712;4.800;2023-05-29T02:28:01;15.60;99.90
21646;DHT22;10984;45.712;4.800;2023-05-29T02:30:28;15.60;99.90
21646;DHT22;10984;45.712;4.800;2023-05-29T02:32:53;15.60;99.90
21646;DHT22;10984;45.712;4.800;2023-05-29T02:35:19;15.60;99.90
21646;DHT22;10984;45.712;4.800;2023-05-29T02:37:48;15.50;99.90
21646;DHT22;10984;45.712;4.800;2023-05-29T02:40:14;15.50;99.90
21646;DHT22;10984;45.712;4.800;2023-05-29T02:42:40;15.40;99.90
21646;DHT22;10984;45.712;4.800;2023-05-29T02:45:06;15.50;99.90
21646;DHT22;10984;45.712;4.800;2023-05-29T02:47:31;15.40;99.90
21646;DHT22;10984;45.712;4.800;2023-05-29T02:49:57;15.40;99.90
21646;DHT22;10984;45.712;4.800;2023-05-29T02:52:23;15.40;99.90
21646;DHT22;10984;45.712;4.800;2023-05-29T02:54:49;15.40;99.90
21646;DHT22;10984;45.712;4.800;2023-05-29T02:57:15;15.30;99.90
21646;DHT22;10984;45.712;4.800;2023-05-29T02:59:41;15.30;99.90
21646;DHT22;10984;45.712;4.800;2023-05-29T03:02:06;15.20;99.90
21646;DHT22;10984;45.712;4.800;2023-05-29T03:04:32;15.20;99.90
21646;DHT22;10984;45.712;4.800;2023-05-29T03:06:58;15.10;99.90
21646;DHT22;10984;45.712;4.800;2023-05-29T03:09:23;15.10;99.90
21646;DHT22;10984;45.712;4.800;2023-05-29T03:11:49;15.10;99.90
21646;DHT22;10984;45.712;4.800;2023-05-29T03:14:16;15.10;99.90
21646;DHT22;10984;45.712;4.800;2023-05-29T03:16:43;15.10;99.90
21646;DHT22;10984;45.712;4.800;2023-05-29T03:19:09;15.20;99.90
21646;DHT22;10984;45.712;4.800;2023-05-29T03:21:34;15.20;99.90
21646;DHT22;10984;45.712;4.800;2023-05-29T03:24:01;15.20;99.90
21646;DHT22;10984;45.712;4.800;2023-05-29T03:26:28;15.20;99.90
21646;DHT22;10984;45.712;4.800;2023-05-29T03:28:54;15.20;99.90
21646;DHT22;10984;45.712;4.800;2023-05-29T03:31:20;15.20;99.90
21646;DHT22;10984;45.712;4.800;2023-05-29T03:33:46;15.10;99.90
21646;DHT22;10984;45.712;4.800;2023-05-29T03:36:12;15.00;99.90
21646;DHT22;10984;45.712;4.800;2023-05-29T03:38:37;14.90;99.90
21646;DHT22;10984;45.712;4.800;2023-05-29T03:41:03;14.90;99.90
21646;DHT22;10984;45.712;4.800;2023-05-29T03:43:28;14.90;99.90
21646;DHT22;10984;45.712;4.800;2023-05-29T03:45:54;14.90;99.90
21646;DHT22;10984;45.712;4.800;2023-05-29T03:48:20;14.80;99.90
21646;DHT22;10984;45.712;4.800;2023-05-29T03:50:46;14.80;99.90
21646;DHT22;10984;45.712;4.800;2023-05-29T03:53:12;14.80;99.90
21646;DHT22;10984;45.712;4.800;2023-05-29T03:55:38;14.70;99.90
21646;DHT22;10984;45.712;4.800;2023-05-29T03:58:03;14.70;99.90
21646;DHT22;10984;45.712;4.800;2023-05-29T04:00:29;14.70;99.90
21646;DHT22;10984;45.712;4.800;2023-05-29T04:02:55;14.70;99.90
21646;DHT22;10984;45.712;4.800;2023-05-29T04:05:21;14.70;99.90
21646;DHT22;10984;45.712;4.800;2023-05-29T04:07:47;14.70;99.90
21646;DHT22;10984;45.712;4.800;2023-05-29T04:10:13;14.60;99.90
21646;DHT22;10984;45.712;4.800;2023-05-29T04:12:38;14.60;99.90
21646;DHT22;10984;45.712;4.800;2023-05-29T04:15:05;14.70;99.90
21646;DHT22;10984;45.712;4.800;2023-05-29T04:17:31;14.80;99.90
21646;DHT22;10984;45.712;4.800;2023-05-29T04:19:56;14.80;99.90
21646;DHT22;10984;45.712;4.800;2023-05-29T04:22:22;14.90;99.90
21646;DHT22;10984;45.712;4.800;2023-05-29T04:24:48;14.90;99.90
21646;DHT22;10984;45.712;4.800;2023-05-29T04:27:13;14.90;99.90
21646;DHT22;10984;45.712;4.800;2023-05-29T04:29:40;14.90;99.90
21646;DHT22;10984;45.712;4.800;2023-05-29T04:34:52;15.20;99.90
21646;DHT22;10984;45.712;4.800;2023-05-29T04:37:17;15.40;99.90
21646;DHT22;10984;45.712;4.800;2023-05-29T04:39:43;15.60;99.90
21646;DHT22;10984;45.712;4.800;2023-05-29T04:42:09;15.90;91.30
21646;DHT22;10984;45.712;4.800;2023-05-29T04:44:34;16.30;77.40
21646;DHT22;10984;45.712;4.800;2023-05-29T04:47:00;16.90;32.60
21646;DHT22;10984;45.712;4.800;2023-05-29T04:49:45;17.50;4.20
21646;DHT22;10984;45.712;4.800;2023-05-29T04:52:29;18.30;1.00
21646;DHT22;10984;45.712;4.800;2023-05-29T04:54:55;18.80;1.00
21646;DHT22;10984;45.712;4.800;2023-05-29T04:57:22;19.40;1.00
21646;DHT22;10984;45.712;4.800;2023-05-29T04:59:47;20.00;1.00
21646;DHT22;10984;45.712;4.800;2023-05-29T05:02:13;20.50;1.00
21646;DHT22;10984;45.712;4.800;2023-05-29T05:04:39;21.10;1.00
21646;DHT22;10984;45.712;4.800;2023-05-29T05:07:05;21.70;1.00
21646;DHT22;10984;45.712;4.800;2023-05-29T05:09:31;21.70;1.00
21646;DHT22;10984;45.712;4.800;2023-05-29T05:11:57;22.20;1.00
21646;DHT22;10984;45.712;4.800;2023-05-29T05:14:22;22.70;56.00
21646;DHT22;10984;45.712;4.800;2023-05-29T05:16:48;23.20;99.90
21646;DHT22;10984;45.712;4.800;2023-05-29T05:19:14;23.80;99.90
21646;DHT22;10984;45.712;4.800;2023-05-29T05:21:39;24.20;99.90
21646;DHT22;10984;45.712;4.800;2023-05-29T05:24:05;24.60;99.90
21646;DHT22;10984;45.712;4.800;2023-05-29T05:26:31;25.10;99.90
21646;DHT22;10984;45.712;4.800;2023-05-29T05:28:57;25.40;99.90
21646;DHT22;10984;45.712;4.800;2023-05-29T05:31:23;25.60;99.90
21646;DHT22;10984;45.712;4.800;2023-05-29T05:33:49;25.70;99.90
21646;DHT22;10984;45.712;4.800;2023-05-29T05:36:14;26.10;99.50
21646;DHT22;10984;45.712;4.800;2023-05-29T05:38:40;26.20;99.10
21646;DHT22;10984;45.712;4.800;2023-05-29T05:41:06;26.10;98.40
21646;DHT22;10984;45.712;4.800;2023-05-29T05:43:32;26.50;97.70
21646;DHT22;10984;45.712;4.800;2023-05-29T05:45:57;27.00;97.40
21646;DHT22;10984;45.712;4.800;2023-05-29T05:48:23;27.40;97.40
21646;DHT22;10984;45.712;4.800;2023-05-29T05:50:48;27.60;96.80
21646;DHT22;10984;45.712;4.800;2023-05-29T05:53:14;28.10;96.10
21646;DHT22;10984;45.712;4.800;2023-05-29T05:55:40;28.40;95.60
21646;DHT22;10984;45.712;4.800;2023-05-29T05:58:05;28.50;94.60
21646;DHT22;10984;45.712;4.800;2023-05-29T06:00:31;28.30;94.30
21646;DHT22;10984;45.712;4.800;2023-05-29T06:02:56;28.60;94.60
21646;DHT22;10984;45.712;4.800;2023-05-29T06:05:23;28.70;93.70
21646;DHT22;10984;45.712;4.800;2023-05-29T06:07:48;28.90;92.80
21646;DHT22;10984;45.712;4.800;2023-05-29T06:10:14;29.20;92.80
21646;DHT22;10984;45.712;4.800;2023-05-29T06:12:39;28.80;92.30
21646;DHT22;10984;45.712;4.800;2023-05-29T06:15:06;28.30;92.20
21646;DHT22;10984;45.712;4.800;2023-05-29T06:17:32;28.50;92.10
21646;DHT22;10984;45.712;4.800;2023-05-29T06:19:57;28.80;92.10
21646;DHT22;10984;45.712;4.800;2023-05-29T06:22:23;29.10;91.20
21646;DHT22;10984;45.712;4.800;2023-05-29T06:24:48;29.60;90.90
21646;DHT22;10984;45.712;4.800;2023-05-29T06:27:14;29.80;90.30
21646;DHT22;10984;45.712;4.800;2023-05-29T06:29:40;30.20;90.30
21646;DHT22;10984;45.712;4.800;2023-05-29T06:32:06;30.00;90.10
21646;DHT22;10984;45.712;4.800;2023-05-29T06:34:31;30.20;89.30
21646;DHT22;10984;45.712;4.800;2023-05-29T06:36:57;30.10;88.30
21646;DHT22;10984;45.712;4.800;2023-05-29T06:39:22;30.50;88.10
21646;DHT22;10984;45.712;4.800;2023-05-29T06:41:49;30.00;85.40
21646;DHT22;10984;45.712;4.800;2023-05-29T06:44:14;30.30;84.80
21646;DHT22;10984;45.712;4.800;2023-05-29T06:46:40;30.10;82.80
21646;DHT22;10984;45.712;4.800;2023-05-29T06:49:06;30.30;83.10
21646;DHT22;10984;45.712;4.800;2023-05-29T06:51:32;30.30;83.20
21646;DHT22;10984;45.712;4.800;2023-05-29T06:53:58;30.50;80.80
21646;DHT22;10984;45.712;4.800;2023-05-29T06:56:23;30.30;80.40
21646;DHT22;10984;45.712;4.800;2023-05-29T06:58:49;30.10;80.40
21646;DHT22;10984;45.712;4.800;2023-05-29T07:01:15;29.70;80.70
21646;DHT22;10984;45.712;4.800;2023-05-29T07:03:42;29.80;79.50
21646;DHT22;10984;45.712;4.800;2023-05-29T07:06:08;29.40;80.30
21646;DHT22;10984;45.712;4.800;2023-05-29T07:08:33;29.10;81.40
21646;DHT22;10984;45.712;4.800;2023-05-29T07:10:59;29.10;82.50
21646;DHT22;10984;45.712;4.800;2023-05-29T07:13:25;28.70;78.70
21646;DHT22;10984;45.712;4.800;2023-05-29T07:16:09;28.20;83.90
21646;DHT22;10984;45.712;4.800;2023-05-29T07:18:35;28.50;83.80
21646;DHT22;10984;45.712;4.800;2023-05-29T07:21:01;28.70;83.80
21646;DHT22;10984;45.712;4.800;2023-05-29T07:23:27;28.60;82.20
21646;DHT22;10984;45.712;4.800;2023-05-29T07:25:52;28.70;75.10
21646;DHT22;10984;45.712;4.800;2023-05-29T07:28:18;29.00;77.20
21646;DHT22;10984;45.712;4.800;2023-05-29T07:30:43;29.10;76.60
21646;DHT22;10984;45.712;4.800;2023-05-29T07:33:09;29.30;75.10
21646;DHT22;10984;45.712;4.800;2023-05-29T07:35:35;29.30;75.40
21646;DHT22;10984;45.712;4.800;2023-05-29T07:38:00;29.30;76.60
21646;DHT22;10984;45.712;4.800;2023-05-29T07:40:26;28.80;75.40
21646;DHT22;10984;45.712;4.800;2023-05-29T07:42:52;29.00;77.20
21646;DHT22;10984;45.712;4.800;2023-05-29T07:45:18;29.20;74.50
21646;DHT22;10984;45.712;4.800;2023-05-29T07:47:43;28.90;74.50
21646;DHT22;10984;45.712;4.800;2023-05-29T07:50:09;29.00;74.90
21646;DHT22;10984;45.712;4.800;2023-05-29T07:52:36;28.80;75.30
21646;DHT22;10984;45.712;4.800;2023-05-29T07:55:01;28.80;75.00
21646;DHT22;10984;45.712;4.800;2023-05-29T07:57:28;29.20;76.00
21646;DHT22;10984;45.712;4.800;2023-05-29T07:59:54;29.00;75.20
21646;DHT22;10984;45.712;4.800;2023-05-29T08:02:20;28.50;75.50
21646;DHT22;10984;45.712;4.800;2023-05-29T08:04:46;28.70;77.10
21646;DHT22;10984;45.712;4.800;2023-05-29T08:07:12;28.30;75.70
21646;DHT22;10984;45.712;4.800;2023-05-29T08:09:38;28.30;75.40
21646;DHT22;10984;45.712;4.800;2023-05-29T08:12:04;28.20;76.40
21646;DHT22;10984;45.712;4.800;2023-05-29T08:14:31;27.90;77.10
21646;DHT22;10984;45.712;4.800;2023-05-29T08:16:56;27.80;77.50
21646;DHT22;10984;45.712;4.800;2023-05-29T08:19:23;27.20;76.30
21646;DHT22;10984;45.712;4.800;2023-05-29T08:21:49;26.40;79.50
21646;DHT22;10984;45.712;4.800;2023-05-29T08:24:14;26.30;79.90
21646;DHT22;10984;45.712;4.800;2023-05-29T08:26:40;26.00;81.30
21646;DHT22;10984;45.712;4.800;2023-05-29T08:29:06;25.80;82.20
21646;DHT22;10984;45.712;4.800;2023-05-29T08:31:32;25.70;79.80
21646;DHT22;10984;45.712;4.800;2023-05-29T08:33:57;25.50;82.30
21646;DHT22;10984;45.712;4.800;2023-05-29T08:36:24;25.30;82.70
21646;DHT22;10984;45.712;4.800;2023-05-29T08:38:49;25.20;86.50
21646;DHT22;10984;45.712;4.800;2023-05-29T08:41:37;25.30;82.60
21646;DHT22;10984;45.712;4.800;2023-05-29T08:44:04;25.20;84.80
21646;DHT22;10984;45.712;4.800;2023-05-29T08:46:32;25.30;83.70
21646;DHT22;10984;45.712;4.800;2023-05-29T08:48:58;25.40;84.20
21646;DHT22;10984;45.712;4.800;2023-05-29T08:51:29;25.20;83.30
21646;DHT22;10984;45.712;4.800;2023-05-29T08:53:56;25.20;82.80
21646;DHT22;10984;45.712;4.800;2023-05-29T08:56:22;25.20;82.90
21646;DHT22;10984;45.712;4.800;2023-05-29T08:58:48;25.10;81.90
21646;DHT22;10984;45.712;4.800;2023-05-29T09:01:16;24.80;83.30
21646;DHT22;10984;45.712;4.800;2023-05-29T09:03:42;24.60;85.50
21646;DHT22;10984;45.712;4.800;2023-05-29T09:06:08;25.00;84.90
21646;DHT22;10984;45.712;4.800;2023-05-29T09:08:34;25.20;83.30
21646;DHT22;10984;45.712;4.800;2023-05-29T09:11:00;25.20;81.70
21646;DHT22;10984;45.712;4.800;2023-05-29T09:13:26;25.40;82.30
21646;DHT22;10984;45.712;4.800;2023-05-29T09:16:12;25.50;81.10
21646;DHT22;10984;45.712;4.800;2023-05-29T09:18:38;25.40;81.90
21646;DHT22;10984;45.712;4.800;2023-05-29T09:24:06;25.20;79.70
21646;DHT22;10984;45.712;4.800;2023-05-29T09:26:32;25.40;70.60
21646;DHT22;10984;45.712;4.800;2023-05-29T09:28:58;25.50;62.20
21646;DHT22;10984;45.712;4.800;2023-05-29T09:31:24;25.50;41.80
21646;DHT22;10984;45.712;4.800;2023-05-29T09:33:50;25.40;1.00
21646;DHT22;10984;45.712;4.800;2023-05-29T09:36:34;25.40;1.00
21646;DHT22;10984;45.712;4.800;2023-05-29T09:39:02;25.40;1.00
21646;DHT22;10984;45.712;4.800;2023-05-29T09:41:28;25.40;1.00
21646;DHT22;10984;45.712;4.800;2023-05-29T09:43:56;25.50;1.00
21646;DHT22;10984;45.712;4.800;2023-05-29T09:46:24;25.40;1.00
21646;DHT22;10984;45.712;4.800;2023-05-29T09:48:50;25.50;1.00
21646;DHT22;10984;45.712;4.800;2023-05-29T09:51:34;25.40;1.00
21646;DHT22;10984;45.712;4.800;2023-05-29T09:56:57;25.40;1.00
21646;DHT22;10984;45.712;4.800;2023-05-29T09:59:24;25.30;1.00
21646;DHT22;10984;45.712;4.800;2023-05-29T10:04:39;25.30;1.00
21646;DHT22;10984;45.712;4.800;2023-05-29T10:07:25;25.30;1.00
21646;DHT22;10984;45.712;4.800;2023-05-29T10:09:55;25.10;1.00
21646;DHT22;10984;45.712;4.800;2023-05-29T10:12:24;25.20;1.00
21646;DHT22;10984;45.712;4.800;2023-05-29T10:14:51;25.30;1.00
21646;DHT22;10984;45.712;4.800;2023-05-29T10:17:21;25.30;1.00
21646;DHT22;10984;45.712;4.800;2023-05-29T10:19:49;25.40;1.00
21646;DHT22;10984;45.712;4.800;2023-05-29T10:22:19;25.40;1.00
21646;DHT22;10984;45.712;4.800;2023-05-29T10:24:46;25.20;1.00
21646;DHT22;10984;45.712;4.800;2023-05-29T10:27:13;25.10;1.00
21646;DHT22;10984;45.712;4.800;2023-05-29T10:35:48;25.40;1.00
21646;DHT22;10984;45.712;4.800;2023-05-29T10:38:17;25.40;1.00
21646;DHT22;10984;45.712;4.800;2023-05-29T10:40:44;25.40;1.00
21646;DHT22;10984;45.712;4.800;2023-05-29T10:43:30;25.40;1.00
21646;DHT22;10984;45.712;4.800;2023-05-29T10:45:57;25.50;1.00
21646;DHT22;10984;45.712;4.800;2023-05-29T10:50:53;25.70;1.00
21646;DHT22;10984;45.712;4.800;2023-05-29T10:53:38;25.60;1.00
21646;DHT22;10984;45.712;4.800;2023-05-29T10:56:09;25.60;1.00
21646;DHT22;10984;45.712;4.800;2023-05-29T10:58:39;25.60;1.00
21646;DHT22;10984;45.712;4.800;2023-05-29T11:01:08;25.70;1.00
21646;DHT22;10984;45.712;4.800;2023-05-29T11:03:34;25.70;1.00
21646;DHT22;10984;45.712;4.800;2023-05-29T11:09:03;25.50;1.00
21646;DHT22;10984;45.712;4.800;2023-05-29T11:11:33;25.70;1.00
21646;DHT22;10984;45.712;4.800;2023-05-29T11:14:03;25.80;1.00
21646;DHT22;10984;45.712;4.800;2023-05-29T11:24:26;25.70;99.90
21646;DHT22;10984;45.712;4.800;2023-05-29T11:26:54;25.70;1.00
21646;DHT22;10984;45.712;4.800;2023-05-29T11:29:22;25.60;1.00
21646;DHT22;10984;45.712;4.800;2023-05-29T11:31:54;25.80;1.00
21646;DHT22;10984;45.712;4.800;2023-05-29T11:34:21;25.90;1.00
21646;DHT22;10984;45.712;4.800;2023-05-29T11:36:48;25.70;1.00
21646;DHT22;10984;45.712;4.800;2023-05-29T11:39:14;25.40;1.00
21646;DHT22;10984;45.712;4.800;2023-05-29T11:41:40;25.30;99.90
21646;DHT22;10984;45.712;4.800;2023-05-29T11:44:06;25.40;99.90
21646;DHT22;10984;45.712;4.800;2023-05-29T11:46:32;25.50;99.90
21646;DHT22;10984;45.712;4.800;2023-05-29T11:48:59;25.80;99.90
21646;DHT22;10984;45.712;4.800;2023-05-29T11:51:25;25.60;1.00
21646;DHT22;10984;45.712;4.800;2023-05-29T11:53:51;25.70;99.90
21646;DHT22;10984;45.712;4.800;2023-05-29T11:56:24;25.60;99.90
21646;DHT22;10984;45.712;4.800;2023-05-29T11:58:50;25.40;99.90
21646;DHT22;10984;45.712;4.800;2023-05-29T12:01:17;25.40;99.90
21646;DHT22;10984;45.712;4.800;2023-05-29T12:03:44;25.30;99.90
21646;DHT22;10984;45.712;4.800;2023-05-29T12:06:10;25.40;99.90
21646;DHT22;10984;45.712;4.800;2023-05-29T12:08:37;25.40;99.90
21646;DHT22;10984;45.712;4.800;2023-05-29T12:11:03;25.30;99.90
21646;DHT22;10984;45.712;4.800;2023-05-29T12:13:29;25.40;99.90
21646;DHT22;10984;45.712;4.800;2023-05-29T12:15:58;25.60;99.90
21646;DHT22;10984;45.712;4.800;2023-05-29T12:18:25;25.60;99.90
21646;DHT22;10984;45.712;4.800;2023-05-29T12:21:06;25.70;99.90
21646;DHT22;10984;45.712;4.800;2023-05-29T12:23:31;25.80;99.90
21646;DHT22;10984;45.712;4.800;2023-05-29T12:25:58;25.90;99.90
21646;DHT22;10984;45.712;4.800;2023-05-29T12:28:25;25.80;99.90
21646;DHT22;10984;45.712;4.800;2023-05-29T12:30:58;25.90;99.90
21646;DHT22;10984;45.712;4.800;2023-05-29T12:33:43;25.90;99.90
21646;DHT22;10984;45.712;4.800;2023-05-29T12:36:09;25.80;99.90
21646;DHT22;10984;45.712;4.800;2023-05-29T12:38:54;25.80;99.90
21646;DHT22;10984;45.712;4.800;2023-05-29T12:41:33;25.90;99.90
21646;DHT22;10984;45.712;4.800;2023-05-29T12:44:02;26.00;99.90
21646;DHT22;10984;45.712;4.800;2023-05-29T12:46:39;26.10;99.90
21646;DHT22;10984;45.712;4.800;2023-05-29T12:49:24;26.10;99.90
21646;DHT22;10984;45.712;4.800;2023-05-29T12:51:51;26.00;99.90
21646;DHT22;10984;45.712;4.800;2023-05-29T12:54:18;26.10;99.90
21646;DHT22;10984;45.712;4.800;2023-05-29T12:56:44;26.10;99.90
21646;DHT22;10984;45.712;4.800;2023-05-29T12:59:11;26.00;99.90
21646;DHT22;10984;45.712;4.800;2023-05-29T13:01:38;26.00;99.90
21646;DHT22;10984;45.712;4.800;2023-05-29T13:04:06;26.10;99.90
21646;DHT22;10984;45.712;4.800;2023-05-29T13:06:34;26.10;99.90
21646;DHT22;10984;45.712;4.800;2023-05-29T13:09:00;26.20;99.90
21646;DHT22;10984;45.712;4.800;2023-05-29T13:11:25;26.10;99.90
21646;DHT22;10984;45.712;4.800;2023-05-29T13:13:51;26.20;99.90
21646;DHT22;10984;45.712;4.800;2023-05-29T13:16:17;26.20;99.90
21646;DHT22;10984;45.712;4.800;2023-05-29T13:18:43;26.20;99.90
21646;DHT22;10984;45.712;4.800;2023-05-29T13:21:09;26.20;99.90
21646;DHT22;10984;45.712;4.800;2023-05-29T13:23:35;26.20;99.90
21646;DHT22;10984;45.712;4.800;2023-05-29T13:26:01;26.20;99.90
21646;DHT22;10984;45.712;4.800;2023-05-29T13:28:27;26.20;99.90
21646;DHT22;10984;45.712;4.800;2023-05-29T13:30:52;26.30;99.90
21646;DHT22;10984;45.712;4.800;2023-05-29T13:33:18;26.20;99.90
21646;DHT22;10984;45.712;4.800;2023-05-29T13:35:44;26.20;99.90
21646;DHT22;10984;45.712;4.800;2023-05-29T13:38:09;26.30;99.90
21646;DHT22;10984;45.712;4.800;2023-05-29T13:40:35;26.30;99.90
21646;DHT22;10984;45.712;4.800;2023-05-29T13:43:01;26.30;99.90
21646;DHT22;10984;45.712;4.800;2023-05-29T13:45:26;26.30;99.90
21646;DHT22;10984;45.712;4.800;2023-05-29T13:47:54;26.30;99.90
21646;DHT22;10984;45.712;4.800;2023-05-29T13:50:20;26.40;99.90
21646;DHT22;10984;45.712;4.800;2023-05-29T13:52:47;26.50;99.90
21646;DHT22;10984;45.712;4.800;2023-05-29T13:55:13;26.40;99.90
21646;DHT22;10984;45.712;4.800;2023-05-29T13:57:38;26.50;99.90
21646;DHT22;10984;45.712;4.800;2023-05-29T14:00:05;26.40;99.90
21646;DHT22;10984;45.712;4.800;2023-05-29T14:02:31;26.50;99.90
21646;DHT22;10984;45.712;4.800;2023-05-29T14:04:57;26.60;99.90
21646;DHT22;10984;45.712;4.800;2023-05-29T14:07:22;26.50;99.90
21646;DHT22;10984;45.712;4.800;2023-05-29T14:09:49;26.60;99.90
21646;DHT22;10984;45.712;4.800;2023-05-29T14:12:15;26.60;99.90
21646;DHT22;10984;45.712;4.800;2023-05-29T14:14:41;26.60;99.90
21646;DHT22;10984;45.712;4.800;2023-05-29T14:17:06;26.70;99.90
21646;DHT22;10984;45.712;4.800;2023-05-29T14:19:32;26.60;99.90
21646;DHT22;10984;45.712;4.800;2023-05-29T14:21:58;26.60;99.90
21646;DHT22;10984;45.712;4.800;2023-05-29T14:24:25;26.60;99.90
21646;DHT22;10984;45.712;4.800;2023-05-29T14:26:51;26.60;99.90
21646;DHT22;10984;45.712;4.800;2023-05-29T14:29:17;26.60;99.90
21646;DHT22;10984;45.712;4.800;2023-05-29T14:31:43;26.70;99.90
21646;DHT22;10984;45.712;4.800;2023-05-29T14:34:09;26.70;99.90
21646;DHT22;10984;45.712;4.800;2023-05-29T14:36:35;26.60;99.90
21646;DHT22;10984;45.712;4.800;2023-05-29T14:39:01;26.60;99.90
21646;DHT22;10984;45.712;4.800;2023-05-29T14:41:27;26.60;99.90
21646;DHT22;10984;45.712;4.800;2023-05-29T14:43:53;26.60;99.90
21646;DHT22;10984;45.712;4.800;2023-05-29T14:46:19;26.60;99.90
21646;DHT22;10984;45.712;4.800;2023-05-29T14:48:44;26.50;99.90
21646;DHT22;10984;45.712;4.800;2023-05-29T14:51:12;26.60;99.90
21646;DHT22;10984;45.712;4.800;2023-05-29T14:53:38;26.50;99.90
21646;DHT22;10984;45.712;4.800;2023-05-29T14:56:05;26.50;99.90
21646;DHT22;10984;45.712;4.800;2023-05-29T14:58:30;26.50;99.90
21646;DHT22;10984;45.712;4.800;2023-05-29T15:00:56;26.60;99.90
21646;DHT22;10984;45.712;4.800;2023-05-29T15:03:23;26.70;99.90
21646;DHT22;10984;45.712;4.800;2023-05-29T15:05:52;26.70;99.90
21646;DHT22;10984;45.712;4.800;2023-05-29T15:08:18;26.70;99.90
21646;DHT22;10984;45.712;4.800;2023-05-29T15:10:44;26.70;99.90
21646;DHT22;10984;45.712;4.800;2023-05-29T15:13:10;26.70;99.90
21646;DHT22;10984;45.712;4.800;2023-05-29T15:15:35;26.70;99.90
21646;DHT22;10984;45.712;4.800;2023-05-29T15:18:01;26.80;99.90
21646;DHT22;10984;45.712;4.800;2023-05-29T15:20:26;26.80;99.90
21646;DHT22;10984;45.712;4.800;2023-05-29T15:22:52;26.70;99.90
21646;DHT22;10984;45.712;4.800;2023-05-29T15:25:19;26.70;99.90
21646;DHT22;10984;45.712;4.800;2023-05-29T15:27:45;26.80;99.90
21646;DHT22;10984;45.712;4.800;2023-05-29T15:30:12;26.80;99.90
21646;DHT22;10984;45.712;4.800;2023-05-29T15:32:39;26.90;99.90
21646;DHT22;10984;45.712;4.800;2023-05-29T15:35:10;26.80;99.90
21646;DHT22;10984;45.712;4.800;2023-05-29T15:37:36;26.80;99.90
21646;DHT22;10984;45.712;4.800;2023-05-29T15:40:02;26.80;99.90
21646;DHT22;10984;45.712;4.800;2023-05-29T15:42:28;26.80;99.90
21646;DHT22;10984;45.712;4.800;2023-05-29T15:44:54;26.70;99.90
21646;DHT22;10984;45.712;4.800;2023-05-29T15:47:20;26.70;99.90
21646;DHT22;10984;45.712;4.800;2023-05-29T15:49:45;26.90;99.90
21646;DHT22;10984;45.712;4.800;2023-05-29T15:52:12;26.90;99.90
21646;DHT22;10984;45.712;4.800;2023-05-29T15:54:38;26.90;99.90
21646;DHT22;10984;45.712;4.800;2023-05-29T15:57:04;26.80;99.90
21646;DHT22;10984;45.712;4.800;2023-05-29T15:59:30;26.80;99.90
21646;DHT22;10984;45.712;4.800;2023-05-29T16:01:56;26.70;99.90
21646;DHT22;10984;45.712;4.800;2023-05-29T16:04:21;26.80;99.90
21646;DHT22;10984;45.712;4.800;2023-05-29T16:06:47;26.70;99.90
21646;DHT22;10984;45.712;4.800;2023-05-29T16:09:13;26.70;99.90
21646;DHT22;10984;45.712;4.800;2023-05-29T16:11:39;26.60;99.90
21646;DHT22;10984;45.712;4.800;2023-05-29T16:14:06;26.70;99.90